MAPA DE AEROPUERTO

INFORMACIÓN METAR y TAF

METAR FOR LEAS
ADDS - METARS form results

(1412 UTC 05 December 2020)
Data provider http://aviationweather.gov/metar/data/
 
METAR text: LEAS 051400Z 23014KT 9999 FEW015 SCT030TCU 05/04 Q1003 TEMPO SHRA SCT030CB
Conditions at: LEAS (ASTURIAS/AVILES , ES) observed 1400 UTC 05 December 2020
Temperature: 5.0°C (41°F)
Dewpoint: 4.0°C (39°F) [RH = 93%]
Pressure (altimeter): 29.62 inches Hg (1003.0 mb)
Winds: from the SW (230 degrees) at 16 MPH (14 knots; 7.2 m/s)
Visibility: 6 or more miles (10+ km)
Ceiling: at least 12,000 feet AGL
Clouds: few clouds at 1500 feet AGL
scattered clouds at 3000 feet AGL
Weather: no significant weather observed at this time

METAR text: LEAS 051327Z 26012KT 210V290 7000 -SHRA FEW015 SCT030TCU BKN060 06/04 Q1003 TEMPO SHRA SCT030CB
Conditions at: LEAS (ASTURIAS/AVILES , ES) observed 1327 UTC 05 December 2020
Temperature: 6.0°C (43°F)
Dewpoint: 4.0°C (39°F) [RH = 87%]
Pressure (altimeter): 29.62 inches Hg (1003.0 mb)
Winds: from the W (260 degrees) at 14 MPH (12 knots; 6.2 m/s)
Visibility: 4 miles ( 7 km)
Ceiling: 6000 feet AGL
Clouds: few clouds at 1500 feet AGL
scattered clouds at 3000 feet AGL
broken clouds at 6000 feet AGL
Weather: -SHRA  (light rain showers)

METAR text: LEAS 051321Z 27012KT 230V330 6000 SHRA FEW012 SCT030TCU BKN060 06/04 Q1003 TEMPO SHRA SCT030CB
Conditions at: LEAS (ASTURIAS/AVILES , ES) observed 1321 UTC 05 December 2020
Temperature: 6.0°C (43°F)
Dewpoint: 4.0°C (39°F) [RH = 87%]
Pressure (altimeter): 29.62 inches Hg (1003.0 mb)
Winds: from the W (270 degrees) at 14 MPH (12 knots; 6.2 m/s)
Visibility: 4 miles ( 6 km)
Ceiling: 6000 feet AGL
Clouds: few clouds at 1200 feet AGL
scattered clouds at 3000 feet AGL
broken clouds at 6000 feet AGL
Weather: SHRA  (rain showers)

Forecast for: LEAS (ASTURIAS/AVILES , ES)
Text: TAF LEAS 050800Z 0509/0609 26014KT 9000 SCT018 BKN025 TX09/0516Z TN06/0509Z
Forecast period: 0900 UTC 05 December 2020 to 0900 UTC 06 December 2020
Forecast type: FROM: standard forecast or significant change
Winds: from the W (260 degrees) at 16 MPH (14 knots; 7.2 m/s)
Visibility: 6 miles (9 km)
Ceiling: 2500 feet AGL
Clouds: scattered clouds at 1800 feet AGL
broken clouds at 2500 feet AGL
Weather: no significant weather forecast for this period
Text: TEMPO 0509/0606 28020G30KT 3000 RA SHRA SCT030TCU
Forecast period: 0900 UTC 05 December 2020 to 0600 UTC 06 December 2020
Forecast type: TEMPORARY: The following changes expected for less than half the time period
Winds: from the W (280 degrees) at 23 MPH (20 knots; 10.3 m/s)
gusting to 34 MPH (30 knots; 15.4 m/s)
Visibility: 1.86 miles (2.99 km)
Ceiling: at least 12,000 feet AGL
Clouds: scattered clouds at 3000 feet AGL
Weather: RA SHRA  (moderate rain, rain showers)
Text: PROB40
Forecast period: 0900 UTC 05 December 2020 to 0300 UTC 06 December 2020
Forecast type: TEMPORARY: The following changes expected for less than half the time period
Visibility: missing
Ceiling: at least 12,000 feet AGL
Clouds: scattered clouds at 3000 feet AGL
Weather: TSRA  (rain associated with thunderstorm(s))
Text: TEMPO 0509/0603 TSRA SCT030CB
Forecast period: 0900 to 1500 UTC 05 December 2020
Forecast type: TEMPORARY: The following changes expected for less than half the time period
Winds: from the W (260 degrees) at 25 MPH (22 knots; 11.3 m/s)
gusting to 45 MPH (39 knots; 20.1 m/s)
Visibility: 0.93 miles (1.50 km)
Ceiling: 1000 feet AGL
Clouds: broken clouds at 1000 feet AGL
broken clouds at 2500 feet AGL
Weather: TSGS +SHRA  (small hail or graupel associated with thunderstorm(s), heavy rain showers)